Time;durP1;ratioP1;P1;durP2;ratioP2;P2;SDS_P1;SDS_P2;PMS_P1;PMS_P2;Temp;Humidity;BMP_temperature;BMP_pressure;BME280_temperature;BME280_humidity;BME280_pressure;Samples;Min_cycle;Max_cycle;Signal;HPM_P1;HPM_P2
2022/05/02 00:00:11;;;;;;;15.40;14.00;;;7.70;99.90;;;;;;5056847;28;20273;-78
2022/05/02 00:02:39;;;;;;;16.50;14.97;;;7.70;99.90;;;;;;5066682;28;20212;-78
2022/05/02 00:05:08;;;;;;;16.77;15.00;;;7.60;99.90;;;;;;5055366;28;20197;-78
2022/05/02 00:07:36;;;;;;;15.87;14.37;;;7.60;99.90;;;;;;5058109;28;20208;-77
2022/05/02 00:10:04;;;;;;;14.87;13.50;;;7.60;99.90;;;;;;5060163;28;20301;-78
2022/05/02 00:12:31;;;;;;;15.00;13.70;;;7.50;99.90;;;;;;5056970;28;20277;-78
2022/05/02 00:14:58;;;;;;;15.27;13.87;;;7.40;99.90;;;;;;5060862;28;20223;-78
2022/05/02 00:17:56;;;;;;;14.80;13.50;;;7.40;99.90;;;;;;5060796;28;20225;-78
2022/05/02 00:20:13;;;;;;;16.80;15.17;;;7.30;99.90;;;;;;5067957;28;20211;-77
2022/05/02 00:22:41;;;;;;;16.57;14.97;;;7.30;99.90;;;;;;5060174;28;20205;-78
2022/05/02 00:25:08;;;;;;;16.80;15.20;;;7.30;99.90;;;;;;5060987;28;20200;-78
2022/05/02 00:27:35;;;;;;;15.53;14.13;;;7.30;99.90;;;;;;5060485;28;20649;-78
2022/05/02 00:30:02;;;;;;;15.40;13.90;;;7.30;99.90;;;;;;5060790;28;20211;-78
2022/05/02 00:32:29;;;;;;;15.30;13.80;;;7.20;99.90;;;;;;5058569;28;20288;-78
2022/05/02 00:34:56;;;;;;;13.90;12.70;;;7.20;99.90;;;;;;5077106;28;20646;-77
2022/05/02 00:37:24;;;;;;;16.57;15.03;;;7.20;99.90;;;;;;5058990;28;20223;-78
2022/05/02 00:39:51;;;;;;;17.17;15.47;;;7.10;99.90;;;;;;5058484;28;20246;-78
2022/05/02 00:42:20;;;;;;;16.70;15.13;;;7.10;99.90;;;;;;5059179;28;20197;-78
2022/05/02 00:44:47;;;;;;;17.93;16.23;;;7.20;99.90;;;;;;5056416;28;20204;-78
2022/05/02 00:47:15;;;;;;;18.03;16.27;;;7.20;99.90;;;;;;5060213;28;20707;-78
2022/05/02 00:49:42;;;;;;;16.33;14.83;;;7.20;99.90;;;;;;5056385;28;20211;-78
2022/05/02 00:52:10;;;;;;;17.53;15.73;;;7.10;99.90;;;;;;5059360;28;20237;-78
2022/05/02 00:54:38;;;;;;;17.67;15.93;;;7.10;99.90;;;;;;5056579;28;20215;-78
2022/05/02 00:57:07;;;;;;;17.77;16.00;;;7.10;99.90;;;;;;5057897;28;20222;-78
2022/05/02 00:59:34;;;;;;;16.90;15.10;;;7.10;99.90;;;;;;5057165;28;20204;-78
2022/05/02 01:02:01;;;;;;;16.30;14.90;;;7.10;99.90;;;;;;5051149;28;20205;-78
2022/05/02 01:04:28;;;;;;;17.67;16.00;;;7.10;99.90;;;;;;5059009;28;20206;-78
2022/05/02 01:07:11;;;;;;;16.87;15.27;;;7.10;99.90;;;;;;5060385;28;20306;-78
2022/05/02 01:09:43;;;;;;;17.57;15.77;;;7.10;99.90;;;;;;5060203;28;20200;-78
2022/05/02 01:12:12;;;;;;;16.40;14.97;;;7.10;99.90;;;;;;5059682;28;20682;-78
2022/05/02 01:14:39;;;;;;;17.53;15.43;;;7.10;99.90;;;;;;5065512;28;20210;-78
2022/05/02 01:17:07;;;;;;;18.30;16.50;;;7.10;99.90;;;;;;5064564;28;20232;-78
2022/05/02 01:19:35;;;;;;;17.53;15.83;;;7.10;99.90;;;;;;5051590;28;20271;-78
2022/05/02 01:22:04;;;;;;;15.33;13.83;;;7.10;99.90;;;;;;5047805;28;20206;-78
2022/05/02 01:24:36;;;;;;;16.60;15.00;;;7.10;99.90;;;;;;5058697;28;20276;-77
2022/05/02 01:27:04;;;;;;;17.13;15.33;;;7.10;99.90;;;;;;5057567;28;20314;-78
2022/05/02 01:29:32;;;;;;;16.30;14.80;;;7.00;99.90;;;;;;5067563;28;20200;-78
2022/05/02 01:31:59;;;;;;;17.27;15.63;;;7.00;99.90;;;;;;5059516;28;20294;-78
2022/05/02 01:34:26;;;;;;;16.83;15.23;;;7.00;99.90;;;;;;5058375;28;20203;-77
2022/05/02 01:36:55;;;;;;;17.20;15.43;;;7.00;99.90;;;;;;5058214;28;20294;-78
2022/05/02 01:39:23;;;;;;;18.47;16.67;;;6.90;99.90;;;;;;5067355;28;20652;-78
2022/05/02 01:41:50;;;;;;;17.43;15.83;;;6.90;99.90;;;;;;5059704;28;20232;-78
2022/05/02 01:44:17;;;;;;;17.93;16.27;;;6.90;99.90;;;;;;5055068;28;20692;-78
2022/05/02 01:46:44;;;;;;;16.53;15.03;;;6.90;99.90;;;;;;5059727;28;20700;-78
2022/05/02 01:49:12;;;;;;;17.03;15.43;;;6.80;99.90;;;;;;5058415;28;20222;-78
2022/05/02 01:51:39;;;;;;;19.53;17.53;;;6.80;99.90;;;;;;5057739;28;20206;-78
2022/05/02 01:54:06;;;;;;;17.87;16.23;;;6.70;99.90;;;;;;5054447;28;20275;-78
2022/05/02 01:56:35;;;;;;;18.10;16.40;;;6.60;99.90;;;;;;5067172;22;20316;-76
2022/05/02 01:59:03;;;;;;;19.53;17.70;;;6.60;99.90;;;;;;5043050;28;20196;-76
2022/05/02 02:01:30;;;;;;;20.43;18.50;;;6.60;99.90;;;;;;5051067;28;20248;-75
2022/05/02 02:03:57;;;;;;;19.83;17.93;;;6.50;99.90;;;;;;5049167;28;20195;-75
2022/05/02 02:06:22;;;;;;;18.97;17.27;;;6.50;99.90;;;;;;5046219;28;20215;-76
2022/05/02 02:08:50;;;;;;;18.73;17.00;;;6.40;99.90;;;;;;5045722;28;20202;-76
2022/05/02 02:11:17;;;;;;;19.77;17.97;;;6.40;99.90;;;;;;5046053;28;20578;-76
2022/05/02 02:13:46;;;;;;;17.00;15.50;;;6.50;99.90;;;;;;5049882;28;20207;-76
2022/05/02 02:16:13;;;;;;;18.33;16.63;;;6.50;99.90;;;;;;5050619;28;20233;-76
2022/05/02 02:18:42;;;;;;;19.90;18.00;;;6.50;99.90;;;;;;5046635;28;20218;-76
2022/05/02 02:21:11;;;;;;;19.70;17.90;;;6.50;99.90;;;;;;5049997;28;20208;-76
2022/05/02 02:23:39;;;;;;;20.27;18.37;;;6.50;99.90;;;;;;5038492;28;20207;-76
2022/05/02 02:26:07;;;;;;;19.60;17.80;;;6.50;99.90;;;;;;5045845;28;20226;-75
2022/05/02 02:28:35;;;;;;;20.50;18.47;;;6.50;99.90;;;;;;5045433;28;20198;-76
2022/05/02 02:31:03;;;;;;;20.30;18.20;;;6.50;99.90;;;;;;5042539;28;20197;-77
2022/05/02 02:33:30;;;;;;;20.03;18.17;;;6.50;99.90;;;;;;5050732;28;20565;-78
2022/05/02 02:35:59;;;;;;;19.37;17.30;;;6.40;99.90;;;;;;5048856;28;20250;-75
2022/05/02 02:38:26;;;;;;;20.63;18.63;;;6.40;99.90;;;;;;5044215;28;20211;-77
2022/05/02 02:40:53;;;;;;;19.40;17.50;;;6.40;99.90;;;;;;5044048;28;20206;-77
2022/05/02 02:43:20;;;;;;;19.33;17.47;;;6.40;99.90;;;;;;5037419;28;20250;-77
2022/05/02 02:45:47;;;;;;;19.67;17.77;;;6.30;99.90;;;;;;5046943;28;20263;-79
2022/05/02 02:48:15;;;;;;;18.40;16.27;;;6.30;99.90;;;;;;5045193;28;20196;-80
2022/05/02 02:50:42;;;;;;;17.50;15.60;;;6.30;99.90;;;;;;5033665;28;20250;-80
2022/05/02 02:53:09;;;;;;;16.80;14.90;;;6.30;99.90;;;;;;5033928;28;20688;-81
2022/05/02 02:55:37;;;;;;;18.67;15.47;;;6.30;99.90;;;;;;5037710;28;20227;-81
2022/05/02 02:58:04;;;;;;;16.27;14.57;;;6.20;99.90;;;;;;5011073;28;20208;-80
2022/05/02 03:00:31;;;;;;;17.17;15.40;;;6.20;99.90;;;;;;5017038;28;20211;-79
2022/05/02 03:02:59;;;;;;;19.53;15.37;;;6.20;99.90;;;;;;5013885;28;20196;-79
2022/05/02 03:08:12;;;;;;;17.47;15.67;;;6.20;99.90;;;;;;5029233;28;20200;-81
2022/05/02 03:10:39;;;;;;;15.27;12.97;;;6.10;99.90;;;;;;5026221;28;20208;-82
2022/05/02 03:13:06;;;;;;;16.70;14.30;;;6.10;99.90;;;;;;5019241;28;20536;-83
2022/05/02 03:15:34;;;;;;;17.00;15.30;;;6.10;99.90;;;;;;5020767;28;20217;-80
2022/05/02 03:18:01;;;;;;;16.97;15.10;;;6.20;99.90;;;;;;5028506;28;20204;-79
2022/05/02 03:20:29;;;;;;;16.90;14.97;;;6.10;99.90;;;;;;5041169;28;20718;-79
2022/05/02 03:22:56;;;;;;;16.10;14.40;;;6.10;99.90;;;;;;5027004;28;20204;-78
2022/05/02 03:25:23;;;;;;;15.93;13.50;;;6.10;99.90;;;;;;5030318;28;20711;-79
2022/05/02 03:27:50;;;;;;;15.47;13.87;;;6.00;99.90;;;;;;5026025;28;20238;-78
2022/05/02 03:30:17;;;;;;;18.10;15.60;;;6.00;99.90;;;;;;5024777;28;20290;-77
2022/05/02 03:32:44;;;;;;;17.23;15.13;;;6.00;99.90;;;;;;5024607;28;20200;-78
2022/05/02 03:35:11;;;;;;;17.40;15.50;;;6.00;99.90;;;;;;5024903;28;20298;-79
2022/05/02 03:37:39;;;;;;;19.87;15.13;;;5.90;99.90;;;;;;5029325;28;20251;-78
2022/05/02 03:40:08;;;;;;;16.57;14.83;;;5.90;99.90;;;;;;5028904;28;20203;-78
2022/05/02 03:42:37;;;;;;;19.17;16.70;;;5.90;99.90;;;;;;5024960;28;20580;-78
2022/05/02 03:45:05;;;;;;;17.00;15.20;;;5.90;99.90;;;;;;5025263;28;20660;-78
2022/05/02 03:47:32;;;;;;;21.33;15.87;;;5.90;99.90;;;;;;5046126;28;20219;-78
2022/05/02 03:49:59;;;;;;;19.80;16.70;;;5.90;99.90;;;;;;5025840;28;20231;-78
2022/05/02 03:52:26;;;;;;;17.50;15.53;;;5.90;99.90;;;;;;5031315;28;20611;-77
2022/05/02 03:54:54;;;;;;;17.10;15.40;;;5.90;99.90;;;;;;5028168;28;20220;-77
2022/05/02 03:57:21;;;;;;;18.73;15.73;;;5.90;99.90;;;;;;5029740;28;20330;-78
2022/05/02 03:59:48;;;;;;;16.57;14.77;;;5.90;99.90;;;;;;5019197;28;20309;-78
2022/05/02 04:02:15;;;;;;;18.47;15.77;;;5.90;99.90;;;;;;5028263;28;20203;-78
2022/05/02 04:04:42;;;;;;;18.97;16.53;;;5.90;99.90;;;;;;5026100;28;20290;-78
2022/05/02 04:07:09;;;;;;;18.17;16.27;;;5.90;99.90;;;;;;5024986;28;20594;-78
2022/05/02 04:09:36;;;;;;;16.83;15.10;;;5.80;99.90;;;;;;5029957;28;20206;-78
2022/05/02 04:12:06;;;;;;;17.60;15.70;;;5.80;99.90;;;;;;5055083;28;20279;-78
2022/05/02 04:14:34;;;;;;;19.50;16.43;;;5.80;99.90;;;;;;5029944;28;20310;-78
2022/05/02 04:17:01;;;;;;;19.90;16.43;;;5.90;99.90;;;;;;5028527;28;20253;-77
2022/05/02 04:19:28;;;;;;;19.30;16.70;;;5.90;99.90;;;;;;5023344;28;20208;-78
2022/05/02 04:21:55;;;;;;;21.07;16.60;;;6.00;99.90;;;;;;5027526;28;20210;-78
2022/05/02 04:24:22;;;;;;;16.23;14.50;;;6.00;99.90;;;;;;5025145;28;20235;-78
2022/05/02 04:26:49;;;;;;;17.97;15.03;;;6.00;99.90;;;;;;5022529;28;20322;-78
2022/05/02 04:29:17;;;;;;;17.03;15.23;;;6.00;99.90;;;;;;5022462;28;20666;-78
2022/05/02 04:31:44;;;;;;;17.17;15.37;;;6.10;99.90;;;;;;5029134;28;20286;-78
2022/05/02 04:34:11;;;;;;;18.70;15.43;;;6.10;99.90;;;;;;5033135;28;20310;-77
2022/05/02 04:36:38;;;;;;;18.27;16.37;;;6.10;99.90;;;;;;5028652;28;20722;-77
2022/05/02 04:39:05;;;;;;;16.40;14.50;;;6.20;99.90;;;;;;5028062;28;20207;-78
2022/05/02 04:41:32;;;;;;;17.33;15.53;;;6.20;99.90;;;;;;5028076;28;20203;-78
2022/05/02 04:43:59;;;;;;;16.63;14.67;;;6.30;99.90;;;;;;5028358;28;20287;-78
2022/05/02 04:46:27;;;;;;;18.40;15.30;;;6.30;99.90;;;;;;5035005;28;20303;-78
2022/05/02 04:48:54;;;;;;;16.90;15.03;;;6.40;99.90;;;;;;5031278;28;20578;-77
2022/05/02 04:51:21;;;;;;;16.40;14.70;;;6.40;99.90;;;;;;5034708;28;20291;-78
2022/05/02 04:53:48;;;;;;;16.83;14.97;;;6.50;99.90;;;;;;5031488;28;20203;-78
2022/05/02 04:56:15;;;;;;;17.70;16.00;;;6.70;99.90;;;;;;5028062;28;20739;-78
2022/05/02 04:58:42;;;;;;;16.83;15.10;;;6.90;99.90;;;;;;5028012;28;20192;-78
2022/05/02 05:01:09;;;;;;;20.13;15.20;;;6.90;99.90;;;;;;5032997;28;20223;-78
2022/05/02 05:03:38;;;;;;;15.53;13.97;;;7.00;99.90;;;;;;5029420;28;20721;-78
2022/05/02 05:06:05;;;;;;;15.60;13.97;;;7.20;99.90;;;;;;5031832;28;20708;-78
2022/05/02 05:08:32;;;;;;;17.83;16.03;;;7.50;99.90;;;;;;5027797;28;20200;-78
2022/05/02 05:11:10;;;;;;;17.80;15.90;;;7.90;99.90;;;;;;5028035;28;20293;-78
2022/05/02 05:13:43;;;;;;;20.13;18.13;;;8.20;99.90;;;;;;5020670;28;20585;-78
2022/05/02 05:16:33;;;;;;;14.90;13.30;;;8.60;99.90;;;;;;5049088;28;20699;-78
2022/05/02 05:19:28;;;;;;;16.73;15.23;;;9.00;99.90;;;;;;5024553;28;20573;-78
2022/05/02 05:22:10;;;;;;;17.50;15.70;;;9.50;99.90;;;;;;5022245;28;20568;-78
2022/05/02 05:25:25;;;;;;;15.73;14.13;;;10.00;99.90;;;;;;5027741;28;20671;-78
2022/05/02 05:28:02;;;;;;;14.63;13.13;;;10.30;99.90;;;;;;5022571;28;20603;-78
2022/05/02 05:30:37;;;;;;;14.67;13.17;;;10.70;99.90;;;;;;5059660;28;20656;-78
2022/05/02 05:33:14;;;;;;;16.40;14.90;;;10.90;99.90;;;;;;5028586;28;20290;-78
2022/05/02 05:35:50;;;;;;;16.73;15.23;;;11.20;99.90;;;;;;5032141;28;20669;-79
2022/05/02 05:38:26;;;;;;;15.13;13.63;;;11.50;99.90;;;;;;5022295;28;20572;-78
2022/05/02 05:41:02;;;;;;;15.40;14.00;;;11.70;99.90;;;;;;5030087;28;20655;-78
2022/05/02 05:43:44;;;;;;;13.17;11.93;;;12.00;99.90;;;;;;5031327;28;20285;-79
2022/05/02 05:46:31;;;;;;;13.37;12.07;;;12.10;99.90;;;;;;5031500;28;20671;-79
2022/05/02 05:49:09;;;;;;;14.20;12.87;;;12.10;99.90;;;;;;5031717;28;20206;-78
2022/05/02 05:51:48;;;;;;;14.90;13.60;;;12.00;99.90;;;;;;5031804;28;20300;-79
2022/05/02 05:54:41;;;;;;;13.67;12.27;;;11.90;99.90;;;;;;5027599;28;20205;-79
2022/05/02 05:57:24;;;;;;;10.90;9.37;;;11.90;99.90;;;;;;5037104;28;20224;-80
2022/05/02 06:00:04;;;;;;;15.13;13.83;;;11.70;99.90;;;;;;5076079;28;20291;-79
2022/05/02 06:02:40;;;;;;;15.10;13.50;;;11.60;99.90;;;;;;5065010;28;20676;-79
2022/05/02 06:05:09;;;;;;;13.93;12.63;;;11.60;99.90;;;;;;5068946;28;20224;-80
2022/05/02 06:07:39;;;;;;;13.60;12.30;;;11.50;99.90;;;;;;5055615;28;20222;-78
2022/05/02 06:10:09;;;;;;;12.47;11.33;;;11.60;99.90;;;;;;5063113;28;20205;-79
2022/05/02 06:12:37;;;;;;;13.87;12.47;;;11.60;99.90;;;;;;5063593;28;20245;-78
2022/05/02 06:20:39;;;;;;;12.77;11.47;;;11.60;99.90;;;;;;5065278;28;20192;-78
2022/05/02 06:23:09;;;;;;;15.20;13.70;;;11.80;99.90;;;;;;5060571;28;20206;-79
2022/05/02 06:25:37;;;;;;;14.20;12.70;;;11.90;99.90;;;;;;5067899;28;20604;-78
2022/05/02 06:28:06;;;;;;;14.23;12.93;;;11.90;99.90;;;;;;5060449;28;20226;-78
2022/05/02 06:30:35;;;;;;;14.53;13.20;;;12.00;99.90;;;;;;5062386;28;20190;-78
2022/05/02 06:33:08;;;;;;;15.30;13.90;;;12.10;99.90;;;;;;5065642;28;20423;-79
2022/05/02 06:35:44;;;;;;;11.90;10.27;;;12.20;99.90;;;;;;5063902;28;20200;-79
2022/05/02 06:38:16;;;;;;;14.40;13.10;;;12.20;99.90;;;;;;5056089;28;20200;-79
2022/05/02 06:40:50;;;;;;;15.40;13.97;;;12.40;99.90;;;;;;5065527;28;20671;-79
2022/05/02 06:43:30;;;;;;;15.03;13.63;;;12.60;99.90;;;;;;5067409;28;20206;-79
2022/05/02 06:46:06;;;;;;;12.07;10.87;;;12.80;99.90;;;;;;5065643;28;20218;-79
2022/05/02 06:48:37;;;;;;;13.93;12.63;;;13.10;99.90;;;;;;5062336;28;20223;-79
2022/05/02 06:51:07;;;;;;;13.80;12.40;;;13.10;99.90;;;;;;5062423;28;20202;-79
2022/05/02 06:53:59;;;;;;;15.87;14.40;;;13.50;99.90;;;;;;5062944;28;20244;-78
2022/05/02 06:56:39;;;;;;;15.77;14.37;;;13.80;99.90;;;;;;5053566;28;20228;-79
2022/05/02 06:59:11;;;;;;;12.37;10.57;;;14.00;99.90;;;;;;5064559;28;20212;-78
2022/05/02 07:01:48;;;;;;;13.27;12.07;;;14.20;99.90;;;;;;5067476;28;20214;-78
2022/05/02 07:04:40;;;;;;;14.73;13.27;;;14.40;99.90;;;;;;5057987;28;20675;-79
2022/05/02 07:07:21;;;;;;;13.47;12.27;;;14.40;99.90;;;;;;5038148;28;20257;-79
2022/05/02 07:09:53;;;;;;;14.93;13.57;;;14.50;99.90;;;;;;5074609;28;20652;-79
2022/05/02 07:12:23;;;;;;;13.40;12.20;;;14.70;99.90;;;;;;5083640;28;20205;-79
2022/05/02 07:15:09;;;;;;;12.07;10.97;;;15.10;99.90;;;;;;5064341;28;20669;-79
2022/05/02 07:17:46;;;;;;;11.83;10.47;;;15.40;99.90;;;;;;5068952;28;20247;-78
2022/05/02 07:20:19;;;;;;;13.17;11.23;;;15.50;99.90;;;;;;5062530;28;20214;-79
2022/05/02 07:23:04;;;;;;;14.47;13.03;;;15.60;99.90;;;;;;5061726;28;20198;-79
2022/05/02 07:25:36;;;;;;;13.60;12.40;;;15.80;99.90;;;;;;5066072;28;20233;-79
2022/05/02 07:28:19;;;;;;;11.27;9.83;;;15.90;99.90;;;;;;5062203;28;20384;-79
2022/05/02 07:30:48;;;;;;;15.60;14.20;;;16.50;99.90;;;;;;5054030;28;20213;-79
2022/05/02 07:33:16;;;;;;;14.37;13.00;;;16.90;99.90;;;;;;5062098;28;20285;-79
2022/05/02 07:35:44;;;;;;;12.80;11.50;;;17.30;99.90;;;;;;5066343;28;20306;-79
2022/05/02 07:38:14;;;;;;;14.03;12.57;;;17.50;99.90;;;;;;5066964;28;20225;-79
2022/05/02 07:41:22;;;;;;;10.77;9.53;;;17.70;99.90;;;;;;5046917;28;20199;-79
2022/05/02 07:43:34;;;;;;;15.63;14.13;;;17.80;99.90;;;;;;5065436;28;20258;-79
2022/05/02 07:46:02;;;;;;;12.33;11.07;;;17.90;99.90;;;;;;5065201;28;20219;-79
2022/05/02 07:48:32;;;;;;;12.10;10.50;;;17.80;99.90;;;;;;5061982;28;20284;-79
2022/05/02 07:51:00;;;;;;;13.30;12.07;;;18.10;99.90;;;;;;5062166;28;20204;-79
2022/05/02 07:53:29;;;;;;;13.37;12.07;;;18.40;99.90;;;;;;5062174;28;20227;-79
2022/05/02 07:58:41;;;;;;;14.33;12.93;;;18.80;99.90;;;;;;5065155;28;20220;-79
2022/05/02 08:01:08;;;;;;;12.20;9.30;;;19.00;99.90;;;;;;5057868;28;20201;-81
2022/05/02 08:03:35;;;;;;;14.57;13.27;;;19.00;99.90;;;;;;5087959;28;20205;-81
2022/05/02 08:06:21;;;;;;;12.73;11.63;;;19.00;99.90;;;;;;5062838;28;20208;-81
2022/05/02 08:08:59;;;;;;;10.33;9.23;;;19.20;99.90;;;;;;5038251;28;20195;-80
2022/05/02 08:11:32;;;;;;;10.97;9.30;;;19.50;99.90;;;;;;5038501;28;20202;-81
2022/05/02 08:14:08;;;;;;;9.90;8.77;;;19.50;99.90;;;;;;5035197;28;20199;-81
2022/05/02 08:16:46;;;;;;;13.07;9.73;;;19.50;99.90;;;;;;5059964;28;20222;-82
2022/05/02 08:19:26;;;;;;;11.53;8.33;;;19.80;99.90;;;;;;5037864;28;20241;-80
2022/05/02 08:27:15;;;;;;;11.37;9.40;;;20.10;99.90;;;;;;5057348;28;20242;-81
2022/05/02 08:27:56;;;;;;;9.50;8.50;;;19.80;99.90;;;;;;5047963;28;20220;-80
2022/05/02 08:30:26;;;;;;;11.30;10.13;;;20.00;99.90;;;;;;5053384;28;20703;-80
2022/05/02 08:33:02;;;;;;;9.83;8.93;;;19.90;99.90;;;;;;5038311;28;20285;-81
2022/05/02 08:35:47;;;;;;;9.57;8.57;;;19.70;99.90;;;;;;5036991;28;20580;-81
2022/05/02 08:38:41;;;;;;;12.03;9.93;;;19.90;99.90;;;;;;5054573;28;20230;-80
2022/05/02 08:41:47;;;;;;;11.50;10.27;;;20.00;99.90;;;;;;5042491;28;20199;-80
2022/05/02 08:44:56;;;;;;;11.10;9.83;;;20.10;99.90;;;;;;5028830;28;20196;-79
2022/05/02 08:47:57;;;;;;;12.87;11.53;;;20.50;99.90;;;;;;5053968;28;20223;-80
2022/05/02 08:50:29;;;;;;;13.13;11.97;;;20.90;99.90;;;;;;5037731;28;20286;-80
2022/05/02 08:53:39;;;;;;;13.97;12.53;;;20.70;99.90;;;;;;5037906;28;20191;-81
2022/05/02 08:56:19;;;;;;;13.17;11.87;;;20.10;99.90;;;;;;5030457;28;20660;-80
2022/05/02 08:59:23;;;;;;;14.40;13.20;;;20.20;99.90;;;;;;5057294;28;20226;-81
2022/05/02 09:02:23;;;;;;;13.13;12.00;;;19.70;99.90;;;;;;5076163;28;20204;-80
2022/05/02 09:05:21;;;;;;;11.90;8.87;;;19.90;99.90;;;;;;5084506;28;20662;-80
2022/05/02 09:08:30;;;;;;;9.30;8.33;;;20.40;99.90;;;;;;5050296;28;20305;-80
2022/05/02 09:11:31;;;;;;;14.10;11.93;;;20.90;99.90;;;;;;5056650;28;20209;-81
2022/05/02 09:14:26;;;;;;;13.17;10.47;;;20.60;99.90;;;;;;5068638;28;20206;-80
2022/05/02 09:17:39;;;;;;;12.20;11.00;;;20.80;99.90;;;;;;5067738;28;20742;-80
2022/05/02 09:20:40;;;;;;;11.67;10.47;;;20.50;99.90;;;;;;5076465;28;20194;-81
2022/05/02 09:23:47;;;;;;;10.63;9.60;;;20.70;99.90;;;;;;5086931;28;20202;-81
2022/05/02 09:26:53;;;;;;;14.33;13.13;;;21.20;99.90;;;;;;5054109;28;20281;-80
2022/05/02 09:29:50;;;;;;;14.80;13.60;;;21.40;99.90;;;;;;5054904;28;20289;-81
2022/05/02 09:32:23;;;;;;;14.53;13.37;;;21.70;99.90;;;;;;5054988;28;20207;-81
2022/05/02 09:34:56;;;;;;;14.77;13.47;;;21.70;99.90;;;;;;5074870;28;20222;-80
2022/05/02 09:37:38;;;;;;;14.27;13.10;;;21.50;99.90;;;;;;5055092;28;20336;-81
2022/05/02 09:40:10;;;;;;;14.17;12.87;;;21.50;99.90;;;;;;5065097;28;20653;-80
2022/05/02 09:42:58;;;;;;;14.57;13.33;;;21.20;99.90;;;;;;5064612;28;20209;-80
2022/05/02 09:51:56;;;;;;;12.07;10.97;;;21.80;99.90;;;;;;5070717;28;20341;-81
2022/05/02 09:57:57;;;;;;;12.67;11.43;;;21.40;99.90;;;;;;5072329;28;20237;-80
2022/05/02 10:03:33;;;;;;;9.40;7.43;;;20.50;99.90;;;;;;5073726;28;20200;-80
2022/05/02 10:06:05;;;;;;;9.70;8.73;;;20.10;99.90;;;;;;5073572;28;20198;-80
2022/05/02 10:08:56;;;;;;;11.20;10.10;;;20.10;99.90;;;;;;5069365;28;20268;-80
2022/05/02 10:11:51;;;;;;;10.17;9.10;;;20.00;99.90;;;;;;5088038;28;20191;-80
2022/05/02 10:14:53;;;;;;;13.20;11.90;;;20.40;99.90;;;;;;5072558;28;20213;-80
2022/05/02 10:17:37;;;;;;;15.00;13.70;;;20.00;99.90;;;;;;5069853;28;20236;-81
2022/05/02 10:20:09;;;;;;;12.07;10.97;;;19.30;99.90;;;;;;5089582;28;20201;-81
2022/05/02 10:22:48;;;;;;;7.87;7.07;;;18.90;99.90;;;;;;5089579;28;20289;-81
2022/05/02 10:25:21;;;;;;;11.23;10.10;;;19.20;99.90;;;;;;5072400;28;20734;-80
2022/05/02 10:28:24;;;;;;;8.20;7.40;;;19.40;99.90;;;;;;5082991;28;20233;-81
2022/05/02 10:31:03;;;;;;;8.67;7.70;;;19.20;99.90;;;;;;5007275;28;20200;-81
2022/05/02 10:33:35;;;;;;;10.43;8.00;;;19.20;99.90;;;;;;5072288;28;20201;-81
2022/05/02 10:36:05;;;;;;;7.97;7.17;;;19.40;99.90;;;;;;5089807;28;20202;-80
2022/05/02 10:38:35;;;;;;;7.97;7.03;;;19.40;99.90;;;;;;5089245;28;20233;-79
2022/05/02 10:41:12;;;;;;;9.87;8.17;;;19.70;99.90;;;;;;5081259;28;20202;-81
2022/05/02 10:43:49;;;;;;;8.87;7.20;;;19.50;99.90;;;;;;5061748;28;20208;-81
2022/05/02 10:46:19;;;;;;;8.67;7.53;;;19.70;99.90;;;;;;5064415;28;20209;-81
2022/05/02 10:48:52;;;;;;;8.37;7.53;;;19.60;99.90;;;;;;5067892;28;20203;-82
2022/05/02 10:51:31;;;;;;;7.93;7.10;;;19.50;99.90;;;;;;5087030;28;20206;-80
2022/05/02 10:54:08;;;;;;;9.07;7.00;;;19.30;99.90;;;;;;5072366;28;20204;-80
2022/05/02 10:56:41;;;;;;;10.33;8.07;;;19.30;99.90;;;;;;5098202;28;20251;-80
2022/05/02 10:59:11;;;;;;;7.73;6.93;;;19.30;99.90;;;;;;5072723;28;20240;-81
2022/05/02 11:02:13;;;;;;;10.00;7.13;;;19.20;99.90;;;;;;5078201;28;20217;-81
2022/05/02 11:05:06;;;;;;;6.27;5.67;;;19.20;99.90;;;;;;5094944;28;20212;-80
2022/05/02 11:08:03;;;;;;;8.57;7.03;;;19.60;99.90;;;;;;5097914;28;20306;-81
2022/05/02 11:10:37;;;;;;;7.37;6.67;;;20.00;99.90;;;;;;5086776;28;20570;-80
2022/05/02 11:13:11;;;;;;;10.83;9.83;;;20.10;99.90;;;;;;5086616;28;20606;-80
2022/05/02 11:15:53;;;;;;;12.57;11.47;;;20.30;99.90;;;;;;5100785;28;20292;-80
2022/05/02 11:21:31;;;;;;;9.47;8.67;;;19.70;99.90;;;;;;5066379;28;20261;-80
2022/05/02 11:24:23;;;;;;;9.03;8.23;;;19.50;99.90;;;;;;5088627;28;20209;-81
2022/05/02 11:26:57;;;;;;;9.57;8.77;;;19.70;99.90;;;;;;5072440;28;20234;-81
2022/05/02 11:29:36;;;;;;;11.20;10.20;;;20.10;99.90;;;;;;5070717;28;20662;-81
2022/05/02 11:32:04;;;;;;;8.00;7.30;;;20.20;99.90;;;;;;5088864;28;20670;-81
2022/05/02 11:34:44;;;;;;;10.37;9.57;;;20.10;99.90;;;;;;5069377;28;20214;-81
2022/05/02 11:37:20;;;;;;;10.40;9.50;;;19.90;99.90;;;;;;5082031;28;20283;-80
2022/05/02 11:39:56;;;;;;;11.40;10.37;;;19.70;99.90;;;;;;5081616;28;20289;-80
2022/05/02 11:42:23;;;;;;;9.97;9.17;;;19.40;99.90;;;;;;5090460;28;20272;-81
2022/05/02 11:45:03;;;;;;;9.97;9.17;;;19.30;99.90;;;;;;5092776;28;20242;-81
2022/05/02 11:47:52;;;;;;;8.30;7.60;;;18.90;99.90;;;;;;5072751;28;20216;-81
2022/05/02 11:50:23;;;;;;;10.80;10.00;;;19.00;99.90;;;;;;5074000;28;20205;-79
2022/05/02 11:52:53;;;;;;;9.60;8.77;;;18.80;99.90;;;;;;5070722;28;20257;-81
2022/05/02 11:55:27;;;;;;;6.97;6.03;;;18.90;99.90;;;;;;5090519;28;20297;-81
2022/05/02 11:58:01;;;;;;;6.80;6.20;;;19.40;99.90;;;;;;5075995;28;20292;-81
2022/05/02 12:00:33;;;;;;;8.93;8.23;;;19.80;99.90;;;;;;5076417;28;20193;-81
2022/05/02 12:03:11;;;;;;;10.13;9.33;;;20.00;99.90;;;;;;5089963;28;20202;-81
2022/05/02 12:05:42;;;;;;;8.80;8.20;;;19.90;99.90;;;;;;5093463;28;20702;-81
2022/05/02 12:08:10;;;;;;;8.20;7.60;;;19.70;99.90;;;;;;5068087;28;20226;-81
2022/05/02 12:10:43;;;;;;;8.93;8.03;;;19.70;99.90;;;;;;5084671;28;20214;-81
2022/05/02 12:13:14;;;;;;;9.23;8.43;;;19.70;99.90;;;;;;5076287;28;20320;-81
2022/05/02 12:15:56;;;;;;;9.47;8.67;;;19.50;99.90;;;;;;5087967;28;20216;-80
2022/05/02 12:18:23;;;;;;;10.20;9.30;;;19.60;99.90;;;;;;5077832;28;20325;-81
2022/05/02 12:20:58;;;;;;;10.67;9.77;;;19.50;99.90;;;;;;5070374;28;20301;-80
2022/05/02 12:23:33;;;;;;;9.13;8.33;;;19.40;99.90;;;;;;5089347;28;20198;-80
2022/05/02 12:26:03;;;;;;;8.50;7.80;;;19.50;99.90;;;;;;5092149;28;20193;-80
2022/05/02 12:28:41;;;;;;;8.93;8.13;;;19.80;99.90;;;;;;5090549;28;20683;-79
2022/05/02 12:31:10;;;;;;;7.63;7.03;;;19.90;99.90;;;;;;5087431;28;20201;-80
2022/05/02 12:33:43;;;;;;;7.30;6.70;;;19.90;99.90;;;;;;5064412;28;20213;-80
2022/05/02 12:36:17;;;;;;;8.47;7.87;;;20.20;99.90;;;;;;5067377;28;20199;-80
2022/05/02 12:38:50;;;;;;;7.57;6.97;;;20.20;99.90;;;;;;5066991;28;20222;-81
2022/05/02 12:41:24;;;;;;;8.37;7.73;;;20.30;99.90;;;;;;5074249;28;20214;-81
2022/05/02 12:43:54;;;;;;;10.00;9.30;;;20.50;99.90;;;;;;5068933;28;20199;-79
2022/05/02 12:46:32;;;;;;;9.70;8.93;;;20.70;99.90;;;;;;5088465;28;20210;-81
2022/05/02 12:49:04;;;;;;;10.87;10.00;;;20.80;99.90;;;;;;5073449;28;20210;-80
2022/05/02 12:51:33;;;;;;;8.60;7.87;;;20.60;99.90;;;;;;5073185;28;20202;-80
2022/05/02 12:54:12;;;;;;;9.73;8.77;;;20.50;99.90;;;;;;5086060;28;20206;-80
2022/05/02 13:02:33;;;;;;;7.70;7.20;;;20.60;99.90;;;;;;5088142;28;20202;-80
2022/05/02 13:05:08;;;;;;;8.63;7.87;;;20.60;99.90;;;;;;5081656;28;20195;-80
2022/05/02 13:07:46;;;;;;;8.17;7.40;;;20.50;99.90;;;;;;5081028;28;20209;-80
2022/05/02 13:10:18;;;;;;;8.87;8.20;;;20.20;99.90;;;;;;5064537;28;20195;-80
2022/05/02 13:12:59;;;;;;;8.20;7.50;;;20.10;99.90;;;;;;5068237;28;20203;-80
2022/05/02 13:15:27;;;;;;;8.27;7.67;;;20.10;99.90;;;;;;5071796;28;20195;-80
2022/05/02 13:17:58;;;;;;;7.70;7.10;;;20.40;99.90;;;;;;5086684;28;20307;-80
2022/05/02 13:20:28;;;;;;;7.03;6.40;;;20.30;99.90;;;;;;5086340;28;20218;-80
2022/05/02 13:23:07;;;;;;;8.07;7.37;;;20.40;99.90;;;;;;5081387;28;20259;-80
2022/05/02 13:25:53;;;;;;;7.70;7.10;;;20.40;99.90;;;;;;5073258;28;20205;-80
2022/05/02 13:28:25;;;;;;;7.67;7.07;;;20.60;99.50;;;;;;5064245;28;20229;-80
2022/05/02 13:30:59;;;;;;;7.30;6.80;;;20.90;99.30;;;;;;5066497;28;20249;-80
2022/05/02 13:33:34;;;;;;;7.73;7.20;;;21.00;99.30;;;;;;5087856;28;20298;-80
2022/05/02 13:36:05;;;;;;;5.20;4.80;;;20.90;98.40;;;;;;5072382;28;20205;-80
2022/05/02 13:38:44;;;;;;;3.97;3.57;;;21.00;98.90;;;;;;5097227;28;20210;-80
2022/05/02 13:41:23;;;;;;;3.40;3.10;;;20.90;99.30;;;;;;5085943;28;20652;-80
2022/05/02 13:44:03;;;;;;;3.30;3.00;;;21.00;99.20;;;;;;5079581;28;20205;-81
2022/05/02 13:46:41;;;;;;;4.00;3.67;;;20.90;99.90;;;;;;5071351;28;20218;-82